Aviation Digital Data Service (ADDS)

Output produced by METARs form (2243 UTC 01 February 2015)
found at http://www.aviationweather.gov/adds/metars/
 
KATL 012140Z 0122/0224 16010KT 6SM -RA SCT025 OVC040 
     TEMPO 0122/0123 5SM RA BKN025 
     FM012300 17010KT 5SM -RA SCT008 OVC015 
     FM020100 19010KT 3SM RA OVC008 
     FM020800 27010KT 3SM -RA BKN008 OVC012 
     FM021000 30010G20KT 5SM -RA SCT008 OVC012 
     FM021700 31012G25KT P6SM BKN040